Airfield :
LOGIN :

Register | Disclaimer

   EN    FR    IT 

 










Legend :    VFR   Marginal VFR   IFR   Intensive IFR   Very Intensive IFR
Visi :
Ceiling :
>= 8 km
>= 3000ft
5 to 8 km
1000 to 3000 ft
1500m to 5 km
500 to 1000 ft
800 to 1500m
200 to 500 ft
< 800m
< 200 ft
Symbols :   Thunderstorms  Fog  Heavy snow  Heavy precipitations  Wind > 20 kt
SIGMETs :     Misc.  Thunderstorms  Icing  Turbulence  Mountain Waves  Volcanic Ashes






- Airport Elevation : 464 ft
- IATA code : EVX


LFOE - Evreux

CURRENT METAR :
  • 280700Z AUTO /////KT 9000 FEW042 BKN220 OVC240 07/06 Q1011

EXPIRED METARs :
  • 280630Z AUTO 25004KT 210V290 9999 FEW046 SCT200 BKN220 07/07 Q1011 TEMPO 4000 BR BKN003
  • 280600Z AUTO /////KT CAVOK 07/07 Q1011
  • 280530Z AUTO 23006KT 8000 FEW017 OVC200 08/08 Q1011 BECMG OVC003
  • 280500Z AUTO 23005KT 5000 BR SCT019 OVC180 07/07 Q1011 BECMG OVC003
  • 280430Z AUTO 22007KT 6000 NSC 07/07 Q1011 BECMG OVC003
  • 280400Z AUTO 21007KT 6000 NSC 08/08 Q1011 BECMG OVC003

TAF AMD TAF LFOE
Valid from the 28 at 05:00 until the 29 at 03:00 UTC


280530Z 2805/2903 23006KT 8000 SCT018
TEMPO 2805/2810 4000 BR BKN003
BECMG 2810/2812 BKN010
BECMG 2812/2814 BKN015
PROB40
TEMPO 2814/2822 4000 -SHRA SCT020TCU



MET'MAP, your aeronautical weather chart ! - Copyright ORBIFLY December 2007 - Disclaimer

ORBIFLY MET'MAP TEAM :

Programming & Development : Alexandra Zaïnal
Original concept : Baudouin d'Aumeries
Technical & hardware support : Manuel Goepfert
Assistance : Marc-Olivier Méhu




SOURCES & CREDITS :

   NOAA